createdAt,value
2017-07-27T00:00:25.334Z,1002.46
2017-07-27T00:02:26.800Z,1002.53
2017-07-27T00:04:28.532Z,1002.53
2017-07-27T00:06:30.107Z,1002.45
2017-07-27T00:08:31.557Z,1002.41
2017-07-27T00:11:13.986Z,1002.40
2017-07-27T00:13:15.427Z,1002.35
2017-07-27T00:15:16.924Z,1002.37
2017-07-27T00:17:18.356Z,1002.34
2017-07-27T00:19:20.295Z,1002.31
2017-07-27T00:22:02.733Z,1002.31
2017-07-27T00:24:04.217Z,1002.29
2017-07-27T00:26:05.638Z,1002.25
2017-07-27T00:28:07.386Z,1002.24
2017-07-27T00:30:09.216Z,1002.29
2017-07-27T00:32:11.101Z,1002.21
2017-07-27T00:34:53.479Z,1002.19
2017-07-27T00:36:54.910Z,1002.22
2017-07-27T00:38:56.339Z,1002.17
2017-07-27T00:40:57.770Z,1002.16
2017-07-27T00:42:59.198Z,1002.16
2017-07-27T00:45:00.629Z,1002.16
2017-07-27T00:47:02.254Z,1002.19
2017-07-27T00:49:03.696Z,1002.18
2017-07-27T00:51:05.128Z,1002.11
2017-07-27T00:53:06.566Z,1002.08
2017-07-27T00:55:48.976Z,1002.10
2017-07-27T00:57:50.408Z,1002.12
2017-07-27T00:59:52.142Z,1002.09
2017-07-27T01:01:53.533Z,1002.12
2017-07-27T01:03:54.998Z,1002.10
2017-07-27T01:05:56.501Z,1002.09
2017-07-27T01:07:57.951Z,1002.08
2017-07-27T01:09:59.390Z,1002.03
2017-07-27T01:12:40.790Z,1002.00
2017-07-27T01:14:42.229Z,1002.01
2017-07-27T01:16:43.682Z,1002.02
2017-07-27T01:18:45.107Z,1001.98
2017-07-27T01:20:46.537Z,1001.97
2017-07-27T01:22:47.971Z,1002.01
2017-07-27T01:24:49.450Z,1001.94
2017-07-27T01:26:50.873Z,1001.93
2017-07-27T01:28:52.301Z,1001.94
2017-07-27T01:30:53.777Z,1001.95
2017-07-27T01:32:55.221Z,1001.94
2017-07-27T01:34:56.645Z,1001.90
2017-07-27T01:36:58.077Z,1001.98
2017-07-27T01:38:59.511Z,1001.93
2017-07-27T01:41:00.948Z,1001.94
2017-07-27T01:43:43.357Z,1001.87
2017-07-27T01:45:44.825Z,1001.86
2017-07-27T01:47:46.266Z,1001.88
2017-07-27T01:49:47.698Z,1001.86
2017-07-27T01:51:49.124Z,1001.85
2017-07-27T01:53:50.699Z,1001.83
2017-07-27T01:55:52.160Z,1001.80
2017-07-27T01:57:53.590Z,1001.84
2017-07-27T02:00:35.011Z,1001.86
2017-07-27T02:02:36.440Z,1001.80
2017-07-27T02:04:37.865Z,1001.75
2017-07-27T02:07:20.283Z,1001.72
2017-07-27T02:09:21.708Z,1001.69
2017-07-27T02:11:23.134Z,1001.67
2017-07-27T02:14:05.540Z,1001.64
2017-07-27T02:16:06.981Z,1001.66
2017-07-27T02:18:08.407Z,1001.62
2017-07-27T02:20:09.833Z,1001.60
2017-07-27T02:22:11.265Z,1001.60
2017-07-27T02:24:12.697Z,1001.62
2017-07-27T02:26:14.129Z,1001.53
2017-07-27T02:28:15.558Z,1001.54
2017-07-27T02:30:16.991Z,1001.53
2017-07-27T02:32:18.421Z,1001.47
2017-07-27T02:34:19.851Z,1001.43
2017-07-27T02:36:21.284Z,1001.42
2017-07-27T02:38:22.741Z,1001.46
2017-07-27T02:40:24.182Z,1001.50
2017-07-27T02:42:25.626Z,1001.51
2017-07-27T02:44:27.127Z,1001.53
2017-07-27T02:47:09.530Z,1001.51
2017-07-27T02:49:10.978Z,1001.48
2017-07-27T02:51:12.397Z,1001.48
2017-07-27T02:53:13.819Z,1001.46
2017-07-27T02:55:15.265Z,1001.45
2017-07-27T02:57:16.704Z,1001.46
2017-07-27T02:59:18.138Z,1001.43
2017-07-27T03:01:19.570Z,1001.41
2017-07-27T03:03:20.992Z,1001.33
2017-07-27T03:05:22.420Z,1001.20
2017-07-27T03:07:23.852Z,1001.15
2017-07-27T03:09:25.285Z,1001.12
2017-07-27T03:11:26.732Z,1001.07
2017-07-27T03:13:28.159Z,1001.09
2017-07-27T03:15:29.617Z,1001.08
2017-07-27T03:18:12.032Z,1001.05
2017-07-27T03:20:13.478Z,1001.06
2017-07-27T03:22:14.887Z,1001.11
2017-07-27T03:24:16.316Z,1001.06
2017-07-27T03:26:17.743Z,1000.98
2017-07-27T03:28:19.170Z,1001.01
2017-07-27T03:30:20.598Z,1001.01
2017-07-27T03:32:22.028Z,1001.13
2017-07-27T03:34:23.454Z,1001.17
2017-07-27T03:36:24.882Z,1001.14
2017-07-27T03:38:26.311Z,1001.19
2017-07-27T03:40:27.784Z,1001.17
2017-07-27T03:42:29.507Z,1001.23
2017-07-27T03:44:31.116Z,1001.18
2017-07-27T03:46:32.535Z,1001.15
2017-07-27T03:48:34.014Z,1001.15
2017-07-27T03:50:35.600Z,1001.22
2017-07-27T03:52:37.182Z,1001.19
2017-07-27T03:54:38.700Z,1001.21
2017-07-27T03:56:40.197Z,1001.17
2017-07-27T03:58:41.747Z,1001.19
2017-07-27T04:00:43.225Z,1001.25
2017-07-27T04:02:44.757Z,1001.33
2017-07-27T04:04:46.234Z,1001.25
2017-07-27T04:06:47.725Z,1001.25
2017-07-27T04:08:49.197Z,1001.24
2017-07-27T04:11:30.748Z,1001.26
2017-07-27T04:13:32.199Z,1001.23
2017-07-27T04:15:33.607Z,1001.20
2017-07-27T04:17:35.086Z,1001.18
2017-07-27T04:19:36.515Z,1001.15
2017-07-27T04:21:38.031Z,1001.15
2017-07-27T04:23:39.456Z,1001.17
2017-07-27T04:25:40.881Z,1001.23
2017-07-27T04:27:42.492Z,1001.29
2017-07-27T04:29:43.904Z,1001.23
2017-07-27T04:31:45.354Z,1001.20
2017-07-27T04:33:46.788Z,1001.22
2017-07-27T04:35:48.217Z,1001.14
2017-07-27T04:37:49.647Z,1001.13
2017-07-27T04:39:51.090Z,1001.08
2017-07-27T04:41:52.669Z,1001.05
2017-07-27T04:43:54.290Z,1001.09
2017-07-27T04:45:55.760Z,1001.03
2017-07-27T04:47:57.200Z,1001.04
2017-07-27T04:49:58.630Z,1001.04
2017-07-27T04:52:00.144Z,1001.08
2017-07-27T04:54:01.606Z,1001.05
2017-07-27T04:56:03.036Z,1001.11
2017-07-27T04:58:04.469Z,1001.09
2017-07-27T05:00:05.998Z,1001.18
2017-07-27T05:02:07.742Z,1001.28
2017-07-27T05:04:09.658Z,1001.35
2017-07-27T05:06:11.176Z,1001.34
2017-07-27T05:08:12.625Z,1001.38
2017-07-27T05:10:14.068Z,1001.42
2017-07-27T05:12:15.491Z,1001.39
2017-07-27T05:14:16.953Z,1001.32
2017-07-27T05:16:18.762Z,1001.27
2017-07-27T05:18:20.233Z,1001.36
2017-07-27T05:20:21.686Z,1001.33
2017-07-27T05:22:23.169Z,1001.33
2017-07-27T05:24:24.571Z,1001.35
2017-07-27T05:26:26.015Z,1001.27
2017-07-27T05:28:27.440Z,1001.27
2017-07-27T05:30:28.879Z,1001.22
2017-07-27T05:32:30.678Z,1001.24
2017-07-27T05:34:32.238Z,1001.24
2017-07-27T05:36:34.043Z,1001.30
2017-07-27T05:38:36.049Z,1001.32
2017-07-27T05:41:18.643Z,1001.23
2017-07-27T05:43:20.191Z,1001.21
2017-07-27T05:45:21.626Z,1001.15
2017-07-27T05:48:04.049Z,1001.23
2017-07-27T05:50:05.465Z,1001.26
2017-07-27T05:52:06.896Z,1001.24
2017-07-27T05:54:08.328Z,1001.29
2017-07-27T05:56:09.760Z,1001.27
2017-07-27T05:58:11.190Z,1001.41
2017-07-27T06:00:12.628Z,1001.49
2017-07-27T06:02:14.052Z,1001.58
2017-07-27T06:04:15.498Z,1001.69
2017-07-27T06:06:16.929Z,1001.72
2017-07-27T06:08:18.366Z,1001.78
2017-07-27T06:10:19.791Z,1001.93
2017-07-27T06:13:02.210Z,1001.93
2017-07-27T06:15:03.754Z,1001.95
2017-07-27T06:17:05.201Z,1001.95
2017-07-27T06:19:06.833Z,1001.90
2017-07-27T06:21:08.241Z,1001.92
2017-07-27T06:23:09.675Z,1001.93
2017-07-27T06:25:11.330Z,1001.91
2017-07-27T06:27:12.765Z,1001.80
2017-07-27T06:29:14.317Z,1001.77
2017-07-27T06:31:16.210Z,1001.73
2017-07-27T06:33:18.181Z,1001.80
2017-07-27T06:36:00.565Z,1001.79
2017-07-27T06:38:02.000Z,1001.87
2017-07-27T06:40:03.442Z,1001.88
2017-07-27T06:42:04.871Z,1001.90
2017-07-27T06:44:06.306Z,1001.82
2017-07-27T06:46:07.750Z,1001.78
2017-07-27T06:48:09.177Z,1001.82
2017-07-27T06:50:10.613Z,1001.89
2017-07-27T06:52:12.045Z,1001.97
2017-07-27T06:54:13.543Z,1001.99
2017-07-27T06:56:14.978Z,1002.00
2017-07-27T06:58:16.417Z,1002.00
2017-07-27T07:00:17.850Z,1002.02
2017-07-27T07:02:19.287Z,1002.03
2017-07-27T07:04:20.719Z,1002.02
2017-07-27T07:06:22.148Z,1001.97
2017-07-27T07:08:23.587Z,1001.95
2017-07-27T07:10:25.012Z,1002.01
2017-07-27T07:12:26.456Z,1002.00
2017-07-27T07:14:27.922Z,1002.02
2017-07-27T07:16:29.357Z,1002.04
2017-07-27T07:18:30.800Z,1002.03
2017-07-27T07:20:32.285Z,1002.02
2017-07-27T07:22:33.822Z,1002.09
2017-07-27T07:24:35.295Z,1002.09
2017-07-27T07:26:36.792Z,1002.09
2017-07-27T07:28:38.288Z,1002.06
2017-07-27T07:31:20.698Z,1002.14
2017-07-27T07:33:22.134Z,1002.09
2017-07-27T07:35:23.570Z,1002.03
2017-07-27T07:37:25.000Z,1002.05
2017-07-27T07:39:26.435Z,1002.07
2017-07-27T07:41:27.870Z,1002.11
2017-07-27T07:43:29.304Z,1002.19
2017-07-27T07:45:30.740Z,1002.17
2017-07-27T07:47:32.177Z,1002.25
2017-07-27T07:49:33.627Z,1002.19
2017-07-27T07:51:35.059Z,1002.15
2017-07-27T07:53:36.500Z,1002.20
2017-07-27T07:55:37.926Z,1002.17
2017-07-27T07:57:39.365Z,1002.23
2017-07-27T07:59:40.793Z,1002.17
2017-07-27T08:01:42.232Z,1002.12
2017-07-27T08:04:25.643Z,1002.12
2017-07-27T08:06:27.105Z,1002.17
2017-07-27T08:08:28.537Z,1002.25
2017-07-27T08:10:29.970Z,1002.29
2017-07-27T08:12:31.508Z,1002.24
2017-07-27T08:14:32.940Z,1002.25
2017-07-27T08:16:34.374Z,1002.28
2017-07-27T08:18:35.809Z,1002.27
2017-07-27T08:20:37.258Z,1002.18
2017-07-27T08:22:38.809Z,1002.13
2017-07-27T08:24:40.320Z,1002.14
2017-07-27T08:26:41.897Z,1002.12
2017-07-27T08:28:43.404Z,1002.14
2017-07-27T08:30:45.032Z,1002.26
2017-07-27T08:32:46.537Z,1002.28
2017-07-27T08:35:28.956Z,1002.14
2017-07-27T08:37:30.409Z,1002.09
2017-07-27T08:39:31.844Z,1002.10
2017-07-27T08:42:14.249Z,1002.20
2017-07-27T08:44:15.769Z,1002.25
2017-07-27T08:46:17.199Z,1002.20
2017-07-27T08:48:18.638Z,1002.21
2017-07-27T08:50:20.072Z,1002.15
2017-07-27T08:52:21.509Z,1002.02
2017-07-27T08:54:22.944Z,1001.97
2017-07-27T08:56:24.380Z,1002.01
2017-07-27T08:58:25.820Z,1002.04
2017-07-27T09:00:27.256Z,1002.13
2017-07-27T09:02:28.692Z,1002.22
2017-07-27T09:04:30.127Z,1002.24
2017-07-27T09:06:31.565Z,1002.31
2017-07-27T09:09:13.981Z,1002.39
2017-07-27T09:11:15.418Z,1002.38
2017-07-27T09:13:16.855Z,1002.50
2017-07-27T09:15:18.296Z,1002.49
2017-07-27T09:17:19.734Z,1002.58
2017-07-27T09:19:21.175Z,1002.57
2017-07-27T09:21:22.612Z,1002.58
2017-07-27T09:23:24.052Z,1002.56
2017-07-27T09:25:25.487Z,1002.49
2017-07-27T09:27:26.926Z,1002.50
2017-07-27T09:29:28.564Z,1002.47
2017-07-27T09:31:30.068Z,1002.42
2017-07-27T09:33:31.516Z,1002.38
2017-07-27T09:35:32.945Z,1002.39
2017-07-27T09:37:34.444Z,1002.46
2017-07-27T09:40:16.862Z,1002.51
2017-07-27T09:42:18.303Z,1002.47
2017-07-27T09:44:19.741Z,1002.40
2017-07-27T09:46:21.178Z,1002.35
2017-07-27T09:48:22.620Z,1002.31
2017-07-27T09:50:24.059Z,1002.35
2017-07-27T09:52:25.495Z,1002.36
2017-07-27T09:54:26.946Z,1002.32
2017-07-27T09:56:28.400Z,1002.35
2017-07-27T09:58:29.834Z,1002.37
2017-07-27T10:00:31.281Z,1002.41
2017-07-27T10:02:32.745Z,1002.37
2017-07-27T10:04:34.238Z,1002.37
2017-07-27T10:06:36.064Z,1002.37
2017-07-27T10:08:37.485Z,1002.33
2017-07-27T10:10:38.922Z,1002.32
2017-07-27T10:12:40.364Z,1002.33
2017-07-27T10:14:41.800Z,1002.34
2017-07-27T10:16:43.236Z,1002.37
2017-07-27T10:18:44.675Z,1002.30
2017-07-27T10:20:46.114Z,1002.31
2017-07-27T10:22:47.550Z,1002.34
2017-07-27T10:24:49.034Z,1002.36
2017-07-27T10:26:50.468Z,1002.33
2017-07-27T10:28:51.908Z,1002.39
2017-07-27T10:30:53.369Z,1002.44
2017-07-27T10:32:54.828Z,1002.46
2017-07-27T10:34:56.277Z,1002.41
2017-07-27T10:36:57.722Z,1002.39
2017-07-27T10:38:59.165Z,1002.40
2017-07-27T10:41:00.600Z,1002.43
2017-07-27T10:43:02.054Z,1002.44
2017-07-27T10:45:44.495Z,1002.52
2017-07-27T10:47:45.930Z,1002.52
2017-07-27T10:49:47.372Z,1002.50
2017-07-27T10:51:48.812Z,1002.45
2017-07-27T10:53:50.253Z,1002.44
2017-07-27T10:55:51.695Z,1002.49
2017-07-27T10:57:53.132Z,1002.50
2017-07-27T10:59:54.570Z,1002.51
2017-07-27T11:01:56.002Z,1002.51
2017-07-27T11:03:57.444Z,1002.59
2017-07-27T11:05:58.883Z,1002.60
2017-07-27T11:08:00.320Z,1002.64
2017-07-27T11:10:01.765Z,1002.65
2017-07-27T11:12:03.193Z,1002.61
2017-07-27T11:14:04.630Z,1002.62
2017-07-27T11:16:47.057Z,1002.66
2017-07-27T11:18:48.495Z,1002.67
2017-07-27T11:20:49.932Z,1002.71
2017-07-27T11:22:51.372Z,1002.71
2017-07-27T11:24:53.064Z,1002.70
2017-07-27T11:26:54.515Z,1002.72
2017-07-27T11:28:55.976Z,1002.65
2017-07-27T11:30:57.493Z,1002.65
2017-07-27T11:33:39.934Z,1002.59
2017-07-27T11:35:41.375Z,1002.59
2017-07-27T11:37:42.815Z,1002.63
2017-07-27T11:39:44.251Z,1002.57
2017-07-27T11:41:45.691Z,1002.57
2017-07-27T11:43:47.128Z,1002.55
2017-07-27T11:45:48.567Z,1002.55
2017-07-27T11:47:50.003Z,1002.51
2017-07-27T11:49:51.442Z,1002.59
2017-07-27T11:51:52.910Z,1002.62
2017-07-27T11:53:54.379Z,1002.62
2017-07-27T11:55:55.925Z,1002.57
2017-07-27T11:57:57.410Z,1002.53
2017-07-27T11:59:58.845Z,1002.52
2017-07-27T12:02:00.291Z,1002.55
2017-07-27T12:04:01.724Z,1002.57
2017-07-27T12:06:03.160Z,1002.53
2017-07-27T12:08:04.598Z,1002.60
2017-07-27T12:10:06.038Z,1002.55
2017-07-27T12:12:07.480Z,1002.48
2017-07-27T12:14:08.917Z,1002.56
2017-07-27T12:16:10.381Z,1002.65
2017-07-27T12:18:12.467Z,1002.69
2017-07-27T12:20:14.765Z,1002.67
2017-07-27T12:22:16.308Z,1002.72
2017-07-27T12:24:18.031Z,1002.69
2017-07-27T12:26:19.521Z,1002.62
2017-07-27T12:28:21.042Z,1002.58
2017-07-27T12:30:22.542Z,1002.53
2017-07-27T12:32:24.031Z,1002.55
2017-07-27T12:34:25.534Z,1002.55
2017-07-27T12:36:27.000Z,1002.57
2017-07-27T12:38:28.636Z,1002.59
2017-07-27T12:40:30.128Z,1002.59
2017-07-27T12:42:31.839Z,1002.60
2017-07-27T12:44:33.914Z,1002.51
2017-07-27T12:46:35.415Z,1002.62
2017-07-27T12:48:36.986Z,1002.59
2017-07-27T12:50:38.910Z,1002.59
2017-07-27T12:53:21.294Z,1002.68
2017-07-27T12:55:22.738Z,1002.68
2017-07-27T12:57:24.204Z,1002.67
2017-07-27T12:59:25.638Z,1002.58
2017-07-27T13:01:27.244Z,1002.50
2017-07-27T13:03:28.668Z,1002.51
2017-07-27T13:05:30.103Z,1002.54
2017-07-27T13:07:31.591Z,1002.49
2017-07-27T13:09:33.032Z,1002.50
2017-07-27T13:11:34.475Z,1002.52
2017-07-27T13:13:35.913Z,1002.48
2017-07-27T13:15:37.351Z,1002.39
2017-07-27T13:17:38.789Z,1002.35
2017-07-27T13:19:40.267Z,1002.36
2017-07-27T13:21:41.747Z,1002.31
2017-07-27T13:23:43.182Z,1002.29
2017-07-27T13:25:44.611Z,1002.19
2017-07-27T13:27:46.051Z,1002.11
2017-07-27T13:29:47.506Z,1002.16
2017-07-27T13:31:48.930Z,1002.21
2017-07-27T13:33:50.367Z,1002.24
2017-07-27T13:35:51.799Z,1002.14
2017-07-27T13:37:53.242Z,1002.07
2017-07-27T13:39:54.680Z,1001.99
2017-07-27T13:41:56.123Z,1001.95
2017-07-27T13:43:57.551Z,1001.85
2017-07-27T13:45:58.997Z,1001.79
2017-07-27T13:48:00.431Z,1001.60
2017-07-27T13:50:01.871Z,1001.55
2017-07-27T13:52:03.376Z,1001.64
2017-07-27T13:54:04.821Z,1001.63
2017-07-27T13:56:06.259Z,1001.90
2017-07-27T13:58:07.696Z,1002.21
2017-07-27T14:00:09.132Z,1002.28
2017-07-27T14:02:10.569Z,1002.30
2017-07-27T14:04:12.004Z,1002.29
2017-07-27T14:06:13.443Z,1002.31
2017-07-27T14:08:14.878Z,1002.33
2017-07-27T14:10:16.313Z,1002.23
2017-07-27T14:12:17.757Z,1002.20
2017-07-27T14:14:19.196Z,1002.30
2017-07-27T14:16:20.648Z,1002.36
2017-07-27T14:18:22.098Z,1002.31
2017-07-27T14:20:23.535Z,1002.35
2017-07-27T14:22:24.967Z,1002.33
2017-07-27T14:24:26.409Z,1002.22
2017-07-27T14:26:27.849Z,1002.16
2017-07-27T14:28:29.321Z,1002.23
2017-07-27T14:30:30.793Z,1002.14
2017-07-27T14:32:32.234Z,1002.20
2017-07-27T14:34:33.667Z,1002.20
2017-07-27T14:36:35.107Z,1002.12
2017-07-27T14:38:36.542Z,1002.11
2017-07-27T14:40:37.985Z,1002.12
2017-07-27T14:42:39.435Z,1002.13
2017-07-27T14:44:40.873Z,1002.02
2017-07-27T14:46:42.304Z,1002.02
2017-07-27T14:48:43.748Z,1002.00
2017-07-27T14:50:45.191Z,1001.94
2017-07-27T14:52:46.628Z,1001.95
2017-07-27T14:54:48.069Z,1001.94
2017-07-27T14:56:49.547Z,1001.84
2017-07-27T14:58:50.980Z,1001.65
2017-07-27T15:00:52.418Z,1001.66
2017-07-27T15:02:53.891Z,1001.60
2017-07-27T15:04:55.334Z,1001.52
2017-07-27T15:06:56.766Z,1001.40
2017-07-27T15:08:58.351Z,1001.53
2017-07-27T15:10:59.800Z,1001.81
2017-07-27T15:13:01.239Z,1001.96
2017-07-27T15:15:02.679Z,1002.06
2017-07-27T15:17:04.229Z,1002.06
2017-07-27T15:19:05.673Z,1001.90
2017-07-27T15:21:07.104Z,1001.93
2017-07-27T15:23:08.548Z,1001.88
2017-07-27T15:25:09.984Z,1001.78
2017-07-27T15:27:11.417Z,1001.83
2017-07-27T15:29:53.914Z,1002.01
2017-07-27T15:31:55.296Z,1002.07
2017-07-27T15:33:56.744Z,1002.10
2017-07-27T15:35:58.246Z,1002.03
2017-07-27T15:37:59.928Z,1002.11
2017-07-27T15:40:01.380Z,1002.09
2017-07-27T15:42:02.842Z,1002.14
2017-07-27T15:44:04.327Z,1002.18
2017-07-27T15:46:05.889Z,1002.21
2017-07-27T15:48:07.364Z,1002.25
2017-07-27T15:50:08.909Z,1002.23
2017-07-27T15:52:10.466Z,1002.23
2017-07-27T15:54:11.977Z,1002.17
2017-07-27T15:56:13.529Z,1002.18
2017-07-27T15:58:15.056Z,1002.14
2017-07-27T16:00:16.579Z,1002.20
2017-07-27T16:02:59.026Z,1002.18
2017-07-27T16:05:00.472Z,1002.20
2017-07-27T16:07:01.899Z,1002.21
2017-07-27T16:09:03.342Z,1002.15
2017-07-27T16:11:04.782Z,1002.12
2017-07-27T16:13:06.225Z,1002.08
2017-07-27T16:15:07.691Z,1002.13
2017-07-27T16:17:09.127Z,1002.11
2017-07-27T16:19:10.564Z,1002.18
2017-07-27T16:21:11.999Z,1002.11
2017-07-27T16:23:13.437Z,1002.13
2017-07-27T16:25:14.932Z,1002.16
2017-07-27T16:27:16.367Z,1002.13
2017-07-27T16:29:17.804Z,1002.11
2017-07-27T16:31:19.239Z,1002.14
2017-07-27T16:33:20.696Z,1002.11
2017-07-27T16:36:03.105Z,1002.10
2017-07-27T16:38:04.540Z,1002.07
2017-07-27T16:40:05.998Z,1002.15
2017-07-27T16:42:07.434Z,1002.11
2017-07-27T16:44:08.871Z,1002.15
2017-07-27T16:46:10.305Z,1002.13
2017-07-27T16:48:11.739Z,1002.07
2017-07-27T16:50:13.182Z,1002.06
2017-07-27T16:52:14.608Z,1002.08
2017-07-27T16:54:16.363Z,1002.05
2017-07-27T16:56:17.850Z,1002.08
2017-07-27T16:58:19.256Z,1002.10
2017-07-27T17:00:20.676Z,1002.06
2017-07-27T17:02:22.145Z,1002.04
2017-07-27T17:04:23.671Z,1002.10
2017-07-27T17:07:06.362Z,1002.07
2017-07-27T17:09:07.803Z,1002.04
2017-07-27T17:11:09.241Z,1002.01
2017-07-27T17:13:10.689Z,1002.04
2017-07-27T17:15:12.127Z,1002.08
2017-07-27T17:17:13.562Z,1002.04
2017-07-27T17:19:14.992Z,1002.11
2017-07-27T17:21:16.431Z,1002.06
2017-07-27T17:23:59.124Z,1002.06
2017-07-27T17:26:00.560Z,1002.06
2017-07-27T17:28:01.993Z,1002.03
2017-07-27T17:30:03.430Z,1002.09
2017-07-27T17:32:04.860Z,1002.05
2017-07-27T17:34:06.295Z,1002.10
2017-07-27T17:36:07.730Z,1002.04
2017-07-27T17:38:09.167Z,1002.07
2017-07-27T17:40:51.621Z,1002.09
2017-07-27T17:42:53.050Z,1002.08
2017-07-27T17:44:54.481Z,1002.11
2017-07-27T17:46:55.918Z,1002.17
2017-07-27T17:48:57.358Z,1002.18
2017-07-27T17:50:58.795Z,1002.18
2017-07-27T17:53:00.229Z,1002.19
2017-07-27T17:55:41.894Z,1002.17
2017-07-27T17:57:43.345Z,1002.15
2017-07-27T17:59:44.779Z,1002.13
2017-07-27T18:01:46.265Z,1002.15
2017-07-27T18:03:47.658Z,1002.13
2017-07-27T18:05:49.097Z,1002.16
2017-07-27T18:07:50.585Z,1002.17
2017-07-27T18:09:52.042Z,1002.17
2017-07-27T18:11:53.508Z,1002.16
2017-07-27T18:13:55.006Z,1002.14
2017-07-27T18:15:56.444Z,1002.15
2017-07-27T18:17:57.951Z,1002.14
2017-07-27T18:19:59.512Z,1002.08
2017-07-27T18:22:01.037Z,1002.05
2017-07-27T18:24:02.636Z,1002.08
2017-07-27T18:26:04.310Z,1002.13
2017-07-27T18:28:05.817Z,1002.11
2017-07-27T18:30:07.356Z,1002.13
2017-07-27T18:32:08.992Z,1002.17
2017-07-27T18:34:10.591Z,1002.17
2017-07-27T18:36:12.175Z,1002.13
2017-07-27T18:38:13.623Z,1002.14
2017-07-27T18:40:15.186Z,1002.15
2017-07-27T18:42:16.932Z,1002.19
2017-07-27T18:44:18.598Z,1002.16
2017-07-27T18:46:20.304Z,1002.19
2017-07-27T18:48:21.806Z,1002.21
2017-07-27T18:50:23.307Z,1002.23
2017-07-27T18:52:24.888Z,1002.21
2017-07-27T18:54:26.366Z,1002.23
2017-07-27T18:56:27.896Z,1002.21
2017-07-27T18:58:29.612Z,1002.24
2017-07-27T19:01:13.484Z,1002.28
2017-07-27T19:03:14.851Z,1002.28
2017-07-27T19:05:16.281Z,1002.25
2017-07-27T19:07:17.718Z,1002.32
2017-07-27T19:09:19.254Z,1002.34
2017-07-27T19:11:20.690Z,1002.34
2017-07-27T19:13:22.163Z,1002.35
2017-07-27T19:15:23.646Z,1002.36
2017-07-27T19:18:05.071Z,1002.37
2017-07-27T19:20:06.501Z,1002.36
2017-07-27T19:22:07.935Z,1002.36
2017-07-27T19:24:09.366Z,1002.35
2017-07-27T19:26:10.799Z,1002.41
2017-07-27T19:28:12.279Z,1002.50
2017-07-27T19:30:13.769Z,1002.54
2017-07-27T19:32:55.352Z,1002.51
2017-07-27T19:34:56.768Z,1002.51
2017-07-27T19:36:58.198Z,1002.51
2017-07-27T19:38:59.631Z,1002.52
2017-07-27T19:41:01.141Z,1002.56
2017-07-27T19:43:02.544Z,1002.58
2017-07-27T19:45:44.967Z,1002.51
2017-07-27T19:47:46.398Z,1002.52
2017-07-27T19:49:47.829Z,1002.55
2017-07-27T19:51:49.261Z,1002.53
2017-07-27T19:53:50.696Z,1002.56
2017-07-27T19:55:52.193Z,1002.56
2017-07-27T19:57:53.596Z,1002.54
2017-07-27T19:59:55.044Z,1002.57
2017-07-27T20:01:56.476Z,1002.59
2017-07-27T20:04:39.044Z,1002.59
2017-07-27T20:06:40.452Z,1002.61
2017-07-27T20:08:41.900Z,1002.63
2017-07-27T20:10:43.580Z,1002.60
2017-07-27T20:12:45.009Z,1002.61
2017-07-27T20:14:46.436Z,1002.60
2017-07-27T20:16:47.883Z,1002.57
2017-07-27T20:18:49.371Z,1002.55
2017-07-27T20:21:31.806Z,1002.60
2017-07-27T20:23:33.225Z,1002.60
2017-07-27T20:25:34.666Z,1002.64
2017-07-27T20:27:36.094Z,1002.64
2017-07-27T20:29:37.520Z,1002.64
2017-07-27T20:31:38.960Z,1002.63
2017-07-27T20:34:21.386Z,1002.67
2017-07-27T20:37:03.954Z,1002.67
2017-07-27T20:39:05.355Z,1002.69
2017-07-27T20:41:06.802Z,1002.73
2017-07-27T20:43:08.218Z,1002.75
2017-07-27T20:45:09.648Z,1002.77
2017-07-27T20:47:11.074Z,1002.79
2017-07-27T20:49:12.506Z,1002.77
2017-07-27T20:51:13.933Z,1002.82
2017-07-27T20:53:56.373Z,1002.79
2017-07-27T20:55:57.784Z,1002.76
2017-07-27T20:57:59.378Z,1002.81
2017-07-27T21:00:00.757Z,1002.80
2017-07-27T21:02:02.212Z,1002.81
2017-07-27T21:04:03.711Z,1002.81
2017-07-27T21:06:05.219Z,1002.88
2017-07-27T21:08:06.728Z,1002.88
2017-07-27T21:10:08.181Z,1002.90
2017-07-27T21:12:09.600Z,1002.90
2017-07-27T21:14:11.036Z,1002.93
2017-07-27T21:16:12.525Z,1002.94
2017-07-27T21:18:13.992Z,1002.95
2017-07-27T21:20:15.453Z,1002.96
2017-07-27T21:22:16.892Z,1002.97
2017-07-27T21:24:18.372Z,1002.96
2017-07-27T21:27:00.813Z,1002.97
2017-07-27T21:29:02.244Z,1003.01
2017-07-27T21:31:03.656Z,1003.01
2017-07-27T21:33:05.105Z,1003.04
2017-07-27T21:35:06.521Z,1003.04
2017-07-27T21:37:07.960Z,1003.07
2017-07-27T21:39:09.386Z,1003.09
2017-07-27T21:41:10.921Z,1003.07
2017-07-27T21:43:12.362Z,1003.06
2017-07-27T21:45:13.844Z,1003.05
2017-07-27T21:47:15.288Z,1003.09
2017-07-27T21:49:16.717Z,1003.05
2017-07-27T21:51:18.150Z,1003.07
2017-07-27T21:53:19.573Z,1003.04
2017-07-27T21:55:21.005Z,1003.11
2017-07-27T21:57:22.482Z,1003.16
2017-07-27T21:59:23.929Z,1003.14
2017-07-27T22:01:25.459Z,1003.16
2017-07-27T22:03:26.935Z,1003.15
2017-07-27T22:05:28.455Z,1003.17
2017-07-27T22:07:29.988Z,1003.14
2017-07-27T22:09:31.526Z,1003.13
2017-07-27T22:11:33.050Z,1003.13
2017-07-27T22:13:34.598Z,1003.12
2017-07-27T22:15:35.998Z,1003.11
2017-07-27T22:17:37.441Z,1003.12
2017-07-27T22:19:38.867Z,1003.19
2017-07-27T22:21:40.316Z,1003.18
2017-07-27T22:23:41.744Z,1003.20
2017-07-27T22:25:43.286Z,1003.21
2017-07-27T22:27:44.823Z,1003.22
2017-07-27T22:29:46.351Z,1003.22
2017-07-27T22:31:47.828Z,1003.24
2017-07-27T22:33:49.396Z,1003.23
2017-07-27T22:35:50.872Z,1003.25
2017-07-27T22:37:52.386Z,1003.26
2017-07-27T22:39:53.911Z,1003.28
2017-07-27T22:42:35.354Z,1003.22
2017-07-27T22:44:36.784Z,1003.25
2017-07-27T22:46:38.217Z,1003.23
2017-07-27T22:48:39.662Z,1003.24
2017-07-27T22:50:41.092Z,1003.25
2017-07-27T22:52:42.582Z,1003.25
2017-07-27T22:55:25.094Z,1003.20
2017-07-27T22:58:07.493Z,1003.29
2017-07-27T23:00:08.935Z,1003.34
2017-07-27T23:02:10.389Z,1003.36
2017-07-27T23:04:11.847Z,1003.33
2017-07-27T23:06:13.269Z,1003.29
2017-07-27T23:08:14.701Z,1003.27
2017-07-27T23:10:16.129Z,1003.33
2017-07-27T23:12:17.570Z,1003.32
2017-07-27T23:14:59.983Z,1003.35
2017-07-27T23:17:01.416Z,1003.37
2017-07-27T23:19:02.878Z,1003.40
2017-07-27T23:21:04.300Z,1003.42
2017-07-27T23:23:05.723Z,1003.45
2017-07-27T23:25:07.151Z,1003.45
2017-07-27T23:27:08.600Z,1003.41
2017-07-27T23:29:10.082Z,1003.46
2017-07-27T23:31:11.607Z,1003.47
2017-07-27T23:33:13.076Z,1003.42
2017-07-27T23:35:14.614Z,1003.38
2017-07-27T23:37:16.111Z,1003.37
2017-07-27T23:39:17.619Z,1003.33
2017-07-27T23:41:19.134Z,1003.34
2017-07-27T23:43:20.645Z,1003.36
2017-07-27T23:45:22.141Z,1003.37
2017-07-27T23:48:05.700Z,1003.34
2017-07-27T23:50:07.227Z,1003.33
2017-07-27T23:52:08.817Z,1003.33
2017-07-27T23:54:10.556Z,1003.33
2017-07-27T23:56:11.987Z,1003.31
2017-07-27T23:58:13.409Z,1003.32
